| time (UTC) | temp C | wind direction | speed KPH | gust KPH | rain 1hr cm | rain 24hr cm | rain mn cm | humidity % | barometer mb |
| 20260507174640 | 11 | 261 | 8.0 | 11.3 | 0.00 | 1.50 | 1.50 | 89 | 1001.7 |
| 20260507174139 | 11 | 266 | 6.4 | 14.5 | 0.00 | 1.50 | 1.50 | 89 | 1001.6 |
| 20260507173134 | 11 | 294 | 9.7 | 16.1 | 0.00 | 1.50 | 1.50 | 89 | 1001.6 |
| 20260507172132 | 11 | 197 | 6.4 | 19.3 | 0.00 | 1.50 | 1.50 | 90 | 1001.8 |
| 20260507171631 | 10 | 247 | 9.7 | 19.3 | 0.00 | 1.50 | 1.50 | 89 | 1001.9 |
| 20260507171128 | 11 | 272 | 6.4 | 14.5 | 0.00 | 1.50 | 1.50 | 91 | 1001.8 |
| 20260507170629 | 11 | 248 | 6.4 | 14.5 | 0.00 | 1.50 | 1.50 | 94 | 1001.9 |
| 20260507170125 | 10 | 234 | 9.7 | 11.3 | 0.00 | 1.50 | 1.50 | 93 | 1002.0 |
| 20260507165624 | 10 | 263 | 3.2 | 11.3 | 0.00 | 1.50 | 1.50 | 94 | 1001.4 |
| 20260507165123 | 10 | 206 | 3.2 | 14.5 | 0.00 | 1.50 | 1.50 | 92 | 1001.4 |
| 20260507163617 | 10 | 294 | 4.8 | 12.9 | 0.05 | 1.50 | 1.50 | 95 | 1001.6 |
| 20260507163109 | 9 | 233 | 4.8 | 20.9 | 0.05 | 1.50 | 1.50 | 95 | 1001.6 |
| 20260507162607 | 9 | 255 | 9.7 | 20.9 | 0.05 | 1.50 | 1.50 | 95 | 1002.5 |
| 20260507162104 | 9 | 264 | 8.0 | 22.5 | 0.08 | 1.50 | 1.50 | 94 | 1002.4 |
| 20260507161104 | 10 | 265 | 20.9 | 27.4 | 0.08 | 1.50 | 1.50 | 94 | 1002.6 |
| 20260507160602 | 10 | 286 | 19.3 | 25.7 | 0.13 | 1.50 | 1.50 | 96 | 1002.3 |
| 20260507160110 | 11 | 240 | 6.4 | 19.3 | 0.13 | 1.50 | 1.50 | 96 | 1000.9 |
| 20260507155600 | 11 | 248 | 14.5 | 19.3 | 0.15 | 1.50 | 1.50 | 96 | 1001.6 |
| 20260507154557 | 11 | 253 | 8.0 | 17.7 | 0.20 | 1.50 | 1.50 | 97 | 1000.9 |
| 20260507153554 | 11 | 200 | 6.4 | 19.3 | 0.20 | 1.42 | 1.42 | 97 | 1001.8 |
| 20260507153053 | 11 | 262 | 9.7 | 19.3 | 0.23 | 1.42 | 1.42 | 97 | 1002.3 |
| 20260507152555 | 11 | 262 | 9.7 | 16.1 | 0.23 | 1.42 | 1.42 | 97 | 1002.2 |
| 20260507152050 | 11 | 244 | 6.4 | 14.5 | 0.23 | 1.40 | 1.40 | 97 | 1001.8 |
| 20260507151550 | 11 | 246 | 6.4 | 14.5 | 0.28 | 1.40 | 1.40 | 97 | 1001.7 |
| 20260507151045 | 11 | 258 | 0.0 | 9.7 | 0.28 | 1.40 | 1.40 | 97 | 1001.6 |
| 20260507145543 | 11 | 233 | 6.4 | 9.7 | 0.38 | 1.35 | 1.35 | 97 | 1002.0 |
| 20260507145042 | 11 | 260 | 4.8 | 9.7 | 0.33 | 1.30 | 1.30 | 97 | 1002.1 |
| 20260507143539 | 11 | 232 | 3.2 | 6.4 | 0.46 | 1.22 | 1.22 | 97 | 1002.1 |
| 20260507143039 | 11 | 34 | 1.6 | 8.0 | 0.46 | 1.19 | 1.19 | 97 | 1001.9 |
| 20260507142033 | 11 | 224 | 3.2 | 9.7 | 0.53 | 1.17 | 1.17 | 97 | 1001.8 |
| 20260507141031 | 11 | 37 | 0.0 | 6.4 | 0.51 | 1.09 | 1.12 | 97 | 1002.2 |
| 20260507140531 | 11 | 303 | 0.0 | 6.4 | 0.51 | 1.07 | 1.07 | 97 | 1002.1 |
| 20260507140030 | 11 | 308 | 0.0 | 6.4 | 0.51 | 1.04 | 1.04 | 97 | 1002.7 |
| 20260507135531 | 11 | 293 | 4.8 | 8.0 | 0.51 | 0.97 | 0.97 | 97 | 1002.8 |
| 20260507135030 | 11 | 275 | 6.4 | 8.0 | 0.58 | 0.94 | 0.94 | 97 | 1002.9 |
| 20260507134527 | 11 | 299 | 6.4 | 8.0 | 0.51 | 0.86 | 0.89 | 96 | 1002.6 |
| 20260507134028 | 11 | 256 | 6.4 | 9.7 | 0.53 | 0.84 | 0.84 | 96 | 1003.0 |
| 20260507133525 | 11 | 266 | 4.8 | 9.7 | 0.48 | 0.76 | 0.76 | 96 | 1002.9 |
| 20260507133022 | 11 | 257 | 6.4 | 11.3 | 0.46 | 0.74 | 0.74 | 96 | 1002.8 |
| 20260507132520 | 11 | 243 | 4.8 | 14.5 | 0.41 | 0.66 | 0.69 | 96 | 1002.8 |
| 20260507132031 | 11 | 234 | 6.4 | 14.5 | 0.36 | 0.64 | 0.64 | 95 | 1003.3 |
| 20260507131512 | 11 | 234 | 6.4 | 17.7 | 0.33 | 0.61 | 0.61 | 95 | 1003.5 |
| 20260507131026 | 11 | 254 | 11.3 | 19.3 | 0.30 | 0.58 | 0.58 | 95 | 1003.4 |
| 20260507130511 | 12 | 240 | 14.5 | 19.3 | 0.28 | 0.56 | 0.56 | 95 | 1003.4 |
| 20260507130009 | 12 | 248 | 9.7 | 20.9 | 0.23 | 0.51 | 0.51 | 95 | 1003.6 |
| 20260507125508 | 12 | 276 | 6.4 | 24.1 | 0.15 | 0.43 | 0.43 | 95 | 1003.7 |
| 20260507125004 | 12 | 256 | 17.7 | 32.2 | 0.10 | 0.38 | 0.38 | 94 | 1003.6 |
| 20260507124504 | 12 | 253 | 14.5 | 32.2 | 0.05 | 0.33 | 0.33 | 93 | 1003.6 |
| 20260507124004 | 12 | 247 | 29.0 | 32.2 | 0.00 | 0.28 | 0.30 | 93 | 1003.3 |
| 20260507123503 | 12 | 264 | 11.3 | 22.5 | 0.00 | 0.28 | 0.28 | 92 | 1003.2 |
| 20260507123003 | 12 | 233 | 11.3 | 14.5 | 0.00 | 0.28 | 0.28 | 92 | 1003.0 |
| 20260507122501 | 12 | 222 | 8.0 | 14.5 | 0.00 | 0.28 | 0.28 | 92 | 1002.9 |
| 20260507121959 | 13 | 253 | 4.8 | 14.5 | 0.03 | 0.28 | 0.28 | 92 | 1002.9 |
| 20260507121459 | 13 | 239 | 6.4 | 17.7 | 0.03 | 0.28 | 0.28 | 93 | 1002.8 |
| 20260507120957 | 12 | 273 | 0.0 | 17.7 | 0.03 | 0.28 | 0.28 | 93 | 1002.6 |
| 20260507120453 | 13 | 186 | 4.8 | 9.7 | 0.03 | 0.28 | 0.28 | 93 | 1002.5 |
| 20260507115952 | 13 | 160 | 4.8 | 12.9 | 0.03 | 0.28 | 0.28 | 93 | 1002.4 |
| 20260507114950 | 13 | 247 | 11.3 | 20.9 | 0.03 | 0.28 | 0.28 | 93 | 1002.8 |
| 20260507113943 | 13 | 174 | 0.0 | 14.5 | 0.03 | 0.28 | 0.28 | 93 | 1003.0 |
| 20260507113439 | 13 | 254 | 8.0 | 14.5 | 0.03 | 0.28 | 0.28 | 93 | 1002.5 |
| 20260507112939 | 13 | 179 | 4.8 | 14.5 | 0.03 | 0.28 | 0.28 | 93 | 1002.7 |
| 20260507112438 | 13 | 171 | 3.2 | 14.5 | 0.03 | 0.28 | 0.28 | 92 | 1002.9 |
| 20260507111934 | 13 | 86 | 14.5 | 14.5 | 0.00 | 0.23 | 0.23 | 91 | 1002.7 |
| 20260507111432 | 13 | 86 | 14.5 | 14.5 | 0.00 | 0.23 | 0.23 | 91 | 1003.2 |
| 20260507110928 | 13 | 86 | 14.5 | 14.5 | 0.00 | 0.23 | 0.23 | 90 | 1003.5 |
| 20260507110425 | 13 | 86 | 14.5 | 14.5 | 0.00 | 0.23 | 0.23 | 90 | 1003.4 |
| 20260507105926 | 13 | 86 | 14.5 | 14.5 | 0.00 | 0.23 | 0.23 | 90 | 1003.3 |
| 20260507105425 | 13 | 86 | 14.5 | 14.5 | 0.00 | 0.23 | 0.23 | 90 | 1003.2 |
| 20260507103922 | 13 | 86 | 14.5 | 14.5 | 0.00 | 0.23 | 0.23 | 90 | 1002.6 |
| 20260507103410 | 13 | 86 | 14.5 | 14.5 | 0.00 | 0.23 | 0.23 | 90 | 1002.3 |
| 20260507102908 | 13 | 86 | 14.5 | 14.5 | 0.00 | 0.23 | 0.23 | 90 | 1002.2 |
| 20260507102407 | 13 | 86 | 14.5 | 14.5 | 0.00 | 0.23 | 0.23 | 90 | 1002.2 |
| 20260507101908 | 13 | 86 | 14.5 | 14.5 | 0.00 | 0.23 | 0.23 | 91 | 1002.5 |
| 20260507101404 | 13 | 86 | 14.5 | 14.5 | 0.00 | 0.23 | 0.23 | 92 | 1002.4 |
| 20260507100903 | 13 | 86 | 14.5 | 14.5 | 0.00 | 0.23 | 0.23 | 92 | 1002.2 |
| 20260507100402 | 13 | 86 | 14.5 | 14.5 | 0.00 | 0.23 | 0.23 | 92 | 1002.3 |
| 20260507095902 | 13 | 86 | 14.5 | 14.5 | 0.00 | 0.23 | 0.23 | 92 | 1002.5 |
| 20260507094858 | 13 | 86 | 14.5 | 14.5 | 0.00 | 0.23 | 0.23 | 93 | 1002.7 |
| 20260507094354 | 13 | 86 | 14.5 | 14.5 | 0.00 | 0.23 | 0.23 | 93 | 1002.8 |
| 20260507093852 | 13 | 86 | 14.5 | 14.5 | 0.00 | 0.23 | 0.23 | 93 | 1003.0 |
| 20260507093350 | 13 | 86 | 14.5 | 14.5 | 0.00 | 0.23 | 0.23 | 93 | 1002.8 |
| 20260507092351 | 13 | 86 | 14.5 | 14.5 | 0.03 | 0.23 | 0.23 | 93 | 1003.2 |
| 20260507091348 | 13 | 86 | 14.5 | 27.4 | 0.03 | 0.23 | 0.23 | 91 | 1002.8 |
| 20260507090846 | 13 | 139 | 11.3 | 19.3 | 0.03 | 0.23 | 0.23 | 90 | 1002.9 |
| 20260507090345 | 13 | 195 | 9.7 | 17.7 | 0.03 | 0.23 | 0.23 | 90 | 1002.9 |
| 20260507085846 | 13 | 192 | 8.0 | 20.9 | 0.03 | 0.23 | 0.23 | 91 | 1003.0 |
| 20260507084842 | 13 | 187 | 3.2 | 19.3 | 0.03 | 0.23 | 0.23 | 92 | 1003.0 |
| 20260507084339 | 14 | 282 | 11.3 | 19.3 | 0.03 | 0.23 | 0.23 | 93 | 1002.9 |
| 20260507083841 | 14 | 207 | 3.2 | 12.9 | 0.03 | 0.23 | 0.23 | 93 | 1003.0 |
| 20260507082839 | 14 | 205 | 4.8 | 17.7 | 0.03 | 0.23 | 0.23 | 93 | 1002.9 |
| 20260507082339 | 14 | 161 | 4.8 | 22.5 | 0.03 | 0.23 | 0.23 | 92 | 1003.3 |
| 20260507081840 | 14 | 172 | 8.0 | 22.5 | 0.03 | 0.23 | 0.23 | 92 | 1003.1 |
| 20260507080339 | 14 | 191 | 8.0 | 30.6 | 0.03 | 0.23 | 0.23 | 92 | 1002.9 |
| 20260507075838 | 14 | 194 | 9.7 | 30.6 | 0.03 | 0.23 | 0.23 | 91 | 1002.6 |
| 20260507074836 | 15 | 171 | 6.4 | 33.8 | 0.03 | 0.23 | 0.23 | 90 | 1002.9 |
| 20260507074335 | 14 | 189 | 14.5 | 32.2 | 0.03 | 0.23 | 0.23 | 90 | 1002.7 |
| 20260507073332 | 14 | 139 | 16.1 | 27.4 | 0.03 | 0.23 | 0.23 | 90 | 1002.6 |
| 20260507072830 | 14 | 178 | 12.9 | 25.7 | 0.03 | 0.23 | 0.23 | 90 | 1002.4 |
| 20260507072329 | 14 | 176 | 20.9 | 29.0 | 0.00 | 0.18 | 0.18 | 90 | 1002.4 |
| 20260507071840 | 14 | 139 | 11.3 | 32.2 | 0.00 | 0.18 | 0.18 | 90 | 1002.8 |
| 20260507071327 | 14 | 165 | 19.3 | 32.2 | 0.00 | 0.18 | 0.18 | 90 | 1003.1 |
| 20260507070830 | 14 | 151 | 11.3 | 33.8 | 0.00 | 0.18 | 0.18 | 89 | 1003.2 |
| 20260507070324 | 14 | 109 | 32.2 | 33.8 | 0.00 | 0.18 | 0.18 | 89 | 1003.3 |
| 20260507065835 | 14 | 171 | 20.9 | 30.6 | 0.00 | 0.18 | 0.18 | 88 | 1003.2 |
| 20260507065322 | 15 | 156 | 12.9 | 30.6 | 0.00 | 0.18 | 0.18 | 87 | 1003.3 |
| 20260507064820 | 15 | 192 | 17.7 | 33.8 | 0.00 | 0.18 | 0.18 | 87 | 1003.6 |
| 20260507064320 | 15 | 169 | 25.7 | 33.8 | 0.00 | 0.18 | 0.18 | 86 | 1003.6 |
| 20260507063321 | 15 | 162 | 12.9 | 29.0 | 0.00 | 0.18 | 0.18 | 86 | 1004.0 |
| 20260507062820 | 15 | 155 | 24.1 | 27.4 | 0.00 | 0.18 | 0.18 | 86 | 1004.3 |
| 20260507061821 | 15 | 152 | 6.4 | 33.8 | 0.00 | 0.18 | 0.18 | 86 | 1004.4 |
| 20260507061320 | 15 | 190 | 9.7 | 24.1 | 0.00 | 0.18 | 0.18 | 87 | 1004.2 |
| 20260507060821 | 15 | 165 | 17.7 | 29.0 | 0.03 | 0.18 | 0.18 | 87 | 1004.4 |
| 20260507060320 | 15 | 165 | 14.5 | 29.0 | 0.03 | 0.18 | 0.18 | 87 | 1004.4 |
| 20260507055820 | 14 | 145 | 11.3 | 30.6 | 0.05 | 0.18 | 0.18 | 88 | 1004.6 |
| 20260507055322 | 14 | 169 | 11.3 | 30.6 | 0.05 | 0.18 | 0.18 | 88 | 1004.5 |
| 20260507054819 | 14 | 196 | 11.3 | 27.4 | 0.05 | 0.18 | 0.18 | 88 | 1004.6 |
| 20260507054319 | 14 | 156 | 12.9 | 30.6 | 0.05 | 0.18 | 0.18 | 88 | 1004.6 |
| 20260507053817 | 14 | 115 | 11.3 | 30.6 | 0.05 | 0.18 | 0.18 | 88 | 1005.1 |
| 20260507053316 | 14 | 115 | 9.7 | 29.0 | 0.05 | 0.18 | 0.18 | 88 | 1005.0 |
| 20260507052328 | 14 | 168 | 24.1 | 33.8 | 0.08 | 0.18 | 0.18 | 89 | 1005.4 |
| 20260507051816 | 14 | 158 | 14.5 | 43.5 | 0.13 | 0.18 | 0.18 | 89 | 1005.7 |
| 20260507051315 | 14 | 183 | 12.9 | 43.5 | 0.13 | 0.18 | 0.18 | 89 | 1005.7 |
| 20260507050815 | 13 | 157 | 16.1 | 30.6 | 0.13 | 0.15 | 0.15 | 90 | 1005.8 |
| 20260507050315 | 14 | 159 | 17.7 | 29.0 | 0.15 | 0.15 | 0.15 | 90 | 1006.0 |
| 20260507045815 | 14 | 117 | 17.7 | 33.8 | 0.13 | 0.13 | 0.13 | 89 | 1006.3 |
| 20260507045314 | 14 | 126 | 25.7 | 33.8 | 0.13 | 0.13 | 0.13 | 89 | 1006.4 |
| 20260507044814 | 13 | 127 | 11.3 | 27.4 | 0.13 | 0.13 | 0.13 | 89 | 1006.4 |
| 20260507044312 | 13 | 134 | 8.0 | 27.4 | 0.13 | 0.13 | 0.13 | 89 | 1006.4 |
| 20260507043810 | 13 | 106 | 16.1 | 27.4 | 0.13 | 0.13 | 0.13 | 89 | 1006.3 |
| 20260507043310 | 13 | 122 | 17.7 | 27.4 | 0.13 | 0.13 | 0.13 | 89 | 1006.8 |
| 20260507042309 | 13 | 119 | 20.9 | 29.0 | 0.10 | 0.10 | 0.10 | 89 | 1007.2 |
| 20260507041810 | 14 | 94 | 17.7 | 24.1 | 0.05 | 0.05 | 0.05 | 89 | 1007.4 |
| 20260507041310 | 14 | 139 | 9.7 | 25.7 | 0.05 | 0.05 | 0.05 | 87 | 1007.1 |
| 20260507040810 | 14 | 152 | 17.7 | 29.0 | 0.03 | 0.03 | 0.03 | 86 | 1007.6 |
| 20260507035809 | 15 | 158 | 8.0 | 27.4 | 0.00 | 0.00 | 0.00 | 82 | 1008.0 |
| 20260507035309 | 15 | 156 | 14.5 | 27.4 | 0.00 | 0.00 | 0.00 | 81 | 1008.0 |
| 20260507034809 | 15 | 148 | 8.0 | 27.4 | 0.00 | 0.00 | 0.00 | 80 | 1008.2 |
| 20260507034309 | 15 | 172 | 17.7 | 27.4 | 0.00 | 0.00 | 0.00 | 80 | 1008.2 |
| 20260507033811 | 15 | 100 | 11.3 | 25.7 | 0.00 | 0.00 | 0.00 | 80 | 1008.1 |
| 20260507033309 | 15 | 157 | 9.7 | 27.4 | 0.00 | 0.00 | 0.00 | 80 | 1008.2 |
| 20260507032758 | 15 | 116 | 11.3 | 27.4 | 0.00 | 0.00 | 0.00 | 80 | 1008.4 |
| 20260507032257 | 15 | 164 | 14.5 | 24.1 | 0.00 | 0.00 | 0.00 | 79 | 1008.2 |
| 20260507031757 | 15 | 126 | 11.3 | 24.1 | 0.00 | 0.00 | 0.00 | 79 | 1008.1 |
| 20260507031256 | 15 | 104 | 14.5 | 25.7 | 0.00 | 0.00 | 0.00 | 79 | 1008.1 |
| 20260507030757 | 15 | 127 | 9.7 | 33.8 | 0.00 | 0.00 | 0.00 | 79 | 1008.3 |
| 20260507030256 | 15 | 121 | 11.3 | 33.8 | 0.00 | 0.00 | 0.00 | 79 | 1008.4 |
| 20260507025756 | 15 | 119 | 11.3 | 27.4 | 0.00 | 0.00 | 0.00 | 78 | 1008.7 |
| 20260507025247 | 15 | 117 | 17.7 | 27.4 | 0.00 | 0.00 | 0.00 | 78 | 1008.8 |
| 20260507024748 | 15 | 108 | 9.7 | 22.5 | 0.00 | 0.00 | 0.00 | 78 | 1009.0 |
| 20260507024248 | 15 | 112 | 12.9 | 24.1 | 0.00 | 0.00 | 0.00 | 78 | 1009.2 |
| 20260507023746 | 16 | 98 | 9.7 | 25.7 | 0.00 | 0.00 | 0.00 | 77 | 1009.1 |
| 20260507023245 | 16 | 157 | 6.4 | 25.7 | 0.00 | 0.00 | 0.00 | 77 | 1009.4 |
| 20260507022745 | 16 | 127 | 6.4 | 24.1 | 0.00 | 0.00 | 0.00 | 77 | 1009.6 |
| 20260507021744 | 16 | 194 | 8.0 | 24.1 | 0.00 | 0.00 | 0.00 | 76 | 1009.8 |
| 20260507021241 | 16 | 152 | 11.3 | 22.5 | 0.00 | 0.00 | 0.00 | 76 | 1009.9 |
| 20260507020741 | 16 | 154 | 11.3 | 20.9 | 0.00 | 0.00 | 0.00 | 76 | 1009.8 |
| 20260507020242 | 16 | 133 | 6.4 | 22.5 | 0.00 | 0.00 | 0.00 | 77 | 1010.1 |
| 20260507015743 | 16 | 187 | 6.4 | 22.5 | 0.00 | 0.00 | 0.00 | 77 | 1009.9 |
| 20260507015242 | 16 | 193 | 11.3 | 20.9 | 0.00 | 0.00 | 0.00 | 77 | 1009.7 |
| 20260507014737 | 16 | 151 | 9.7 | 29.0 | 0.00 | 0.00 | 0.00 | 77 | 1009.6 |
| 20260507014233 | 16 | 116 | 11.3 | 29.0 | 0.00 | 0.00 | 0.00 | 77 | 1009.3 |
| 20260507013734 | 16 | 121 | 14.5 | 22.5 | 0.00 | 0.00 | 0.00 | 77 | 1009.8 |
| 20260507013235 | 16 | 119 | 12.9 | 27.4 | 0.00 | 0.00 | 0.00 | 76 | 1009.9 |
| 20260507012733 | 16 | 166 | 11.3 | 27.4 | 0.00 | 0.00 | 0.00 | 76 | 1010.2 |
| 20260507012233 | 16 | 106 | 8.0 | 24.1 | 0.00 | 0.00 | 0.00 | 76 | 1009.9 |
| 20260507011733 | 16 | 155 | 12.9 | 35.4 | 0.00 | 0.00 | 0.00 | 76 | 1010.2 |
| 20260507011233 | 16 | 118 | 16.1 | 35.4 | 0.00 | 0.00 | 0.00 | 76 | 1010.3 |
| 20260507010732 | 16 | 152 | 11.3 | 32.2 | 0.00 | 0.00 | 0.00 | 76 | 1010.4 |
| 20260507010231 | 17 | 155 | 14.5 | 32.2 | 0.00 | 0.00 | 0.00 | 74 | 1011.2 |
| 20260507005731 | 17 | 146 | 8.0 | 32.2 | 0.00 | 0.00 | 0.00 | 73 | 1011.1 |
| 20260507005231 | 17 | 151 | 12.9 | 29.0 | 0.00 | 0.00 | 0.00 | 74 | 1011.1 |
| 20260507004227 | 17 | 180 | 14.5 | 38.6 | 0.00 | 0.00 | 0.00 | 74 | 1011.3 |
| 20260507003727 | 17 | 152 | 19.3 | 30.6 | 0.00 | 0.00 | 0.00 | 73 | 1011.4 |
| 20260507003227 | 17 | 160 | 12.9 | 30.6 | 0.00 | 0.00 | 0.00 | 74 | 1011.2 |
| 20260507002727 | 17 | 180 | 20.9 | 30.6 | 0.00 | 0.00 | 0.00 | 73 | 1011.4 |
| 20260507002227 | 17 | 166 | 9.7 | 27.4 | 0.00 | 0.00 | 0.00 | 74 | 1011.2 |
| 20260507001727 | 17 | 83 | 6.4 | 27.4 | 0.00 | 0.00 | 0.00 | 74 | 1011.4 |
| 20260507001227 | 17 | 174 | 11.3 | 27.4 | 0.00 | 0.00 | 0.00 | 73 | 1011.5 |
| 20260507000727 | 17 | 142 | 3.2 | 25.7 | 0.00 | 0.00 | 0.00 | 73 | 1011.4 |
| 20260506235227 | 17 | 163 | 16.1 | 32.2 | 0.00 | 0.00 | 0.00 | 73 | 1011.5 |
| 20260506234726 | 17 | 155 | 16.1 | 24.1 | 0.00 | 0.00 | 0.00 | 73 | 1011.6 |
| 20260506234226 | 17 | 148 | 11.3 | 22.5 | 0.00 | 0.00 | 0.00 | 73 | 1011.6 |
| 20260506233724 | 17 | 159 | 14.5 | 24.1 | 0.00 | 0.00 | 0.00 | 73 | 1011.6 |
| 20260506233223 | 17 | 157 | 17.7 | 24.1 | 0.00 | 0.00 | 0.00 | 73 | 1011.6 |
| 20260506232723 | 17 | 187 | 6.4 | 25.7 | 0.00 | 0.00 | 0.00 | 73 | 1011.8 |
| 20260506232221 | 17 | 181 | 9.7 | 29.0 | 0.00 | 0.00 | 0.00 | 72 | 1011.7 |
| 20260506231220 | 17 | 148 | 9.7 | 33.8 | 0.00 | 0.00 | 0.00 | 72 | 1011.4 |
| 20260506230719 | 17 | 173 | 9.7 | 33.8 | 0.00 | 0.00 | 0.00 | 71 | 1011.3 |
| 20260506230217 | 17 | 129 | 9.7 | 30.6 | 0.00 | 0.00 | 0.00 | 71 | 1011.3 |
| 20260506225213 | 17 | 195 | 9.7 | 35.4 | 0.00 | 0.00 | 0.00 | 71 | 1011.5 |
| 20260506224712 | 17 | 175 | 20.9 | 35.4 | 0.00 | 0.00 | 0.00 | 70 | 1011.6 |
| 20260506223709 | 18 | 177 | 16.1 | 30.6 | 0.00 | 0.00 | 0.00 | 70 | 1011.5 |
| 20260506223200 | 18 | 194 | 14.5 | 30.6 | 0.00 | 0.00 | 0.00 | 70 | 1011.5 |
| 20260506222658 | 18 | 158 | 25.7 | 33.8 | 0.00 | 0.00 | 0.00 | 70 | 1011.5 |
| 20260506221651 | 18 | 250 | 12.9 | 33.8 | 0.00 | 0.00 | 0.00 | 69 | 1011.5 |
| 20260506221150 | 18 | 183 | 12.9 | 33.8 | 0.00 | 0.00 | 0.00 | 68 | 1011.7 |
| 20260506220645 | 18 | 176 | 14.5 | 29.0 | 0.00 | 0.00 | 0.00 | 68 | 1011.7 |
| 20260506220145 | 18 | 179 | 19.3 | 29.0 | 0.00 | 0.00 | 0.00 | 67 | 1011.5 |
| 20260506215137 | 18 | 192 | 14.5 | 24.1 | 0.00 | 0.00 | 0.00 | 66 | 1011.5 |
| 20260506214635 | 18 | 172 | 11.3 | 30.6 | 0.00 | 0.00 | 0.00 | 67 | 1011.5 |
| 20260506214115 | 18 | 204 | 9.7 | 33.8 | 0.00 | 0.00 | 0.00 | 65 | 1011.8 |
| 20260506213615 | 19 | 149 | 16.1 | 35.4 | 0.00 | 0.00 | 0.00 | 64 | 1011.8 |
| 20260506213115 | 19 | 169 | 19.3 | 35.4 | 0.00 | 0.00 | 0.00 | 63 | 1011.7 |
| 20260506212116 | 19 | 231 | 4.8 | 33.8 | 0.00 | 0.00 | 0.00 | 64 | 1011.8 |
| 20260506211615 | 19 | 166 | 11.3 | 30.6 | 0.00 | 0.00 | 0.00 | 64 | 1011.7 |
| 20260506211114 | 19 | 166 | 12.9 | 30.6 | 0.00 | 0.00 | 0.00 | 63 | 1012.1 |
| 20260506210614 | 19 | 193 | 16.1 | 48.3 | 0.00 | 0.00 | 0.00 | 63 | 1012.0 |
| 20260506210114 | 19 | 194 | 17.7 | 48.3 | 0.00 | 0.00 | 0.00 | 64 | 1011.7 |
| 20260506205110 | 20 | 203 | 16.1 | 32.2 | 0.00 | 0.00 | 0.00 | 63 | 1011.6 |
| 20260506204609 | 20 | 166 | 19.3 | 35.4 | 0.00 | 0.00 | 0.00 | 62 | 1011.7 |
| 20260506204109 | 20 | 185 | 16.1 | 41.8 | 0.00 | 0.00 | 0.00 | 62 | 1011.5 |
| 20260506203608 | 20 | 173 | 20.9 | 41.8 | 0.00 | 0.00 | 0.00 | 61 | 1011.7 |
| 20260506203105 | 20 | 189 | 20.9 | 32.2 | 0.00 | 0.00 | 0.00 | 60 | 1011.7 |
| 20260506202606 | 20 | 182 | 24.1 | 37.0 | 0.00 | 0.00 | 0.00 | 61 | 1011.7 |
| 20260506202103 | 20 | 169 | 11.3 | 37.0 | 0.00 | 0.00 | 0.00 | 62 | 1011.6 |
| 20260506201603 | 20 | 209 | 14.5 | 37.0 | 0.00 | 0.00 | 0.00 | 61 | 1011.6 |
| 20260506201116 | 20 | 183 | 9.7 | 35.4 | 0.00 | 0.00 | 0.00 | 61 | 1011.4 |
| 20260506200603 | 20 | 166 | 9.7 | 35.4 | 0.00 | 0.00 | 0.00 | 61 | 1011.5 |
| 20260506195602 | 20 | 165 | 14.5 | 30.6 | 0.00 | 0.00 | 0.00 | 61 | 1011.3 |
| 20260506195101 | 20 | 168 | 20.9 | 40.2 | 0.00 | 0.00 | 0.00 | 61 | 1011.5 |
| 20260506194558 | 20 | 153 | 14.5 | 40.2 | 0.00 | 0.00 | 0.00 | 60 | 1011.6 |
| 20260506194056 | 20 | 238 | 11.3 | 32.2 | 0.00 | 0.00 | 0.00 | 61 | 1011.4 |
| 20260506193557 | 20 | 204 | 14.5 | 32.2 | 0.00 | 0.00 | 0.00 | 60 | 1011.2 |
| 20260506193057 | 20 | 206 | 14.5 | 32.2 | 0.00 | 0.00 | 0.00 | 60 | 1011.2 |
| 20260506192555 | 20 | 172 | 12.9 | 38.6 | 0.00 | 0.00 | 0.00 | 60 | 1011.3 |
| 20260506192056 | 20 | 159 | 22.5 | 38.6 | 0.00 | 0.00 | 0.00 | 60 | 1011.4 |
| 20260506191556 | 21 | 171 | 12.9 | 40.2 | 0.00 | 0.00 | 0.00 | 59 | 1011.4 |
| 20260506190556 | 21 | 162 | 16.1 | 45.1 | 0.00 | 0.00 | 0.00 | 59 | 1011.4 |
| 20260506190107 | 21 | 164 | 22.5 | 45.1 | 0.00 | 0.00 | 0.00 | 58 | 1011.8 |
| 20260506185554 | 21 | 162 | 12.9 | 32.2 | 0.00 | 0.00 | 0.00 | 58 | 1011.8 |
| 20260506184554 | 21 | 167 | 17.7 | 48.3 | 0.00 | 0.00 | 0.00 | 57 | 1011.9 |
| 20260506184055 | 21 | 175 | 20.9 | 48.3 | 0.00 | 0.00 | 0.00 | 57 | 1011.8 |
| 20260506183552 | 21 | 188 | 17.7 | 27.4 | 0.00 | 0.00 | 0.00 | 56 | 1012.0 |
| 20260506183051 | 22 | 171 | 11.3 | 37.0 | 0.00 | 0.00 | 0.00 | 57 | 1012.1 |
| 20260506182550 | 22 | 190 | 17.7 | 41.8 | 0.00 | 0.00 | 0.00 | 57 | 1012.2 |
| 20260506182049 | 22 | 141 | 9.7 | 41.8 | 0.00 | 0.00 | 0.00 | 56 | 1012.2 |
| 20260506181549 | 22 | 171 | 20.9 | 32.2 | 0.00 | 0.00 | 0.00 | 57 | 1012.3 |
| 20260506181047 | 21 | 183 | 11.3 | 37.0 | 0.00 | 0.00 | 0.00 | 58 | 1012.3 |
| 20260506180544 | 22 | 169 | 22.5 | 43.5 | 0.00 | 0.00 | 0.00 | 58 | 1012.2 |
| 20260506180059 | 21 | 182 | 3.2 | 43.5 | 0.00 | 0.00 | 0.00 | 60 | 1012.2 |